Time;durP1;ratioP1;P1;durP2;ratioP2;P2;SDS_P1;SDS_P2;PMS_P1;PMS_P2;Temp;Humidity;BMP_temperature;BMP_pressure;BME280_temperature;BME280_humidity;BME280_pressure;Samples;Min_cycle;Max_cycle;Signal;HPM_P1;HPM_P2
2024/02/27 00:00:29;;;;;;;4.20;3.67;;;15.00;59.50;;;;;;4994426;28;20948;-76
2024/02/27 00:02:56;;;;;;;3.33;3.07;;;15.00;59.40;;;;;;4993500;28;20472;-77
2024/02/27 00:05:25;;;;;;;3.80;3.40;;;15.00;59.40;;;;;;4994549;28;20452;-76
2024/02/27 00:07:53;;;;;;;3.43;3.23;;;15.00;59.30;;;;;;4988893;28;20486;-76
2024/02/27 00:10:21;;;;;;;3.33;3.10;;;14.90;59.20;;;;;;4988301;28;20532;-77
2024/02/27 00:12:49;;;;;;;3.50;3.20;;;14.90;59.10;;;;;;5005544;28;20480;-76
2024/02/27 00:15:16;;;;;;;3.83;3.43;;;14.90;59.40;;;;;;5012843;28;20464;-77
2024/02/27 00:17:45;;;;;;;3.53;3.10;;;14.90;59.10;;;;;;4994554;28;20473;-76
2024/02/27 00:20:14;;;;;;;3.53;3.17;;;14.90;59.10;;;;;;4994350;28;20449;-76
2024/02/27 00:22:42;;;;;;;3.77;3.47;;;14.90;59.20;;;;;;4993907;28;20488;-78
2024/02/27 00:25:10;;;;;;;3.40;3.10;;;14.90;59.20;;;;;;4994286;28;20540;-77
2024/02/27 00:27:38;;;;;;;3.40;3.10;;;14.90;59.10;;;;;;4993899;28;20434;-77
2024/02/27 00:30:08;;;;;;;3.50;3.30;;;14.80;59.00;;;;;;4994130;28;20499;-77
2024/02/27 00:32:36;;;;;;;2.97;2.77;;;14.80;58.90;;;;;;4994339;28;20461;-76
2024/02/27 00:35:05;;;;;;;5.00;3.60;;;14.80;59.10;;;;;;4994488;28;20441;-77
2024/02/27 00:37:33;;;;;;;3.50;3.20;;;14.80;59.10;;;;;;4994871;28;20552;-77
2024/02/27 00:40:04;;;;;;;3.77;3.40;;;14.80;58.70;;;;;;4995554;28;20453;-76
2024/02/27 00:42:32;;;;;;;3.40;3.20;;;14.80;58.70;;;;;;4989801;28;20469;-77
2024/02/27 00:45:00;;;;;;;4.30;3.27;;;14.80;59.10;;;;;;4988127;28;20491;-78
2024/02/27 00:47:28;;;;;;;3.10;2.90;;;14.80;59.00;;;;;;4993965;28;20524;-78
2024/02/27 00:49:56;;;;;;;2.80;2.60;;;14.80;58.90;;;;;;4994223;28;20457;-77
2024/02/27 00:52:26;;;;;;;3.73;3.43;;;14.70;58.90;;;;;;4993964;28;20476;-77
2024/02/27 00:54:54;;;;;;;4.73;3.40;;;14.70;58.80;;;;;;4974416;28;20529;-77
2024/02/27 00:57:22;;;;;;;3.37;2.87;;;14.70;58.70;;;;;;4974034;28;20482;-77
2024/02/27 00:59:50;;;;;;;2.90;2.77;;;14.70;58.80;;;;;;4974340;28;20461;-77
2024/02/27 01:02:18;;;;;;;3.70;3.40;;;14.70;58.90;;;;;;4973876;28;20443;-77
2024/02/27 01:04:46;;;;;;;3.60;3.30;;;14.70;59.50;;;;;;4973915;28;20542;-77
2024/02/27 01:07:14;;;;;;;3.40;3.10;;;14.70;58.90;;;;;;4973099;28;20516;-77
2024/02/27 01:09:44;;;;;;;3.83;3.23;;;14.70;59.10;;;;;;4974007;28;20454;-77
2024/02/27 01:12:12;;;;;;;3.77;3.47;;;14.70;59.00;;;;;;4973856;28;20946;-77
2024/02/27 01:14:40;;;;;;;3.50;3.30;;;14.70;58.90;;;;;;4973688;28;20445;-77
2024/02/27 01:17:08;;;;;;;4.07;3.10;;;14.80;59.10;;;;;;4974178;28;20533;-78
2024/02/27 01:19:36;;;;;;;3.43;3.13;;;14.70;58.90;;;;;;4973706;28;20482;-77
2024/02/27 01:22:04;;;;;;;3.90;3.40;;;14.80;59.10;;;;;;4973642;28;20516;-79
2024/02/27 01:24:33;;;;;;;3.23;3.03;;;14.70;59.20;;;;;;4973710;28;20490;-78
2024/02/27 01:27:02;;;;;;;3.63;3.33;;;14.80;59.90;;;;;;4973892;28;20442;-77
2024/02/27 01:29:30;;;;;;;3.63;3.33;;;14.80;59.10;;;;;;4973735;28;20485;-77
2024/02/27 01:31:58;;;;;;;4.17;3.87;;;14.80;59.20;;;;;;4973651;28;20438;-76
2024/02/27 01:34:25;;;;;;;3.70;3.40;;;14.80;59.30;;;;;;4973515;28;20494;-77
2024/02/27 01:36:54;;;;;;;3.90;3.60;;;14.80;59.40;;;;;;4973706;28;20438;-77
2024/02/27 01:39:22;;;;;;;3.60;3.40;;;14.80;59.10;;;;;;4973304;28;20508;-77
2024/02/27 01:41:49;;;;;;;3.10;2.90;;;14.80;59.40;;;;;;4973580;28;20474;-76
2024/02/27 01:44:19;;;;;;;3.70;3.40;;;14.80;59.60;;;;;;4973589;28;20505;-77
2024/02/27 01:46:47;;;;;;;3.97;3.57;;;14.80;59.60;;;;;;4973203;28;20478;-76
2024/02/27 01:49:15;;;;;;;5.43;3.00;;;14.80;59.50;;;;;;4973378;28;20469;-77
2024/02/27 01:51:43;;;;;;;3.63;3.13;;;14.80;59.70;;;;;;4973649;28;20444;-78
2024/02/27 01:54:10;;;;;;;3.00;2.80;;;14.90;59.80;;;;;;4973566;28;20545;-77
2024/02/27 01:56:38;;;;;;;3.67;3.47;;;14.90;59.90;;;;;;4973476;28;20446;-77
2024/02/27 01:59:07;;;;;;;3.50;3.30;;;14.90;59.80;;;;;;4973476;28;20469;-77
2024/02/27 02:01:36;;;;;;;3.90;3.60;;;14.90;59.70;;;;;;4972987;28;20509;-77
2024/02/27 02:04:07;;;;;;;4.30;3.90;;;14.90;59.80;;;;;;4973417;28;21000;-78
2024/02/27 02:06:35;;;;;;;3.93;3.57;;;14.90;59.80;;;;;;4973424;28;20478;-77
2024/02/27 02:09:03;;;;;;;6.83;3.30;;;14.90;60.00;;;;;;4974125;28;20446;-75
2024/02/27 02:11:32;;;;;;;4.10;3.70;;;14.90;60.10;;;;;;4973405;28;20508;-75
2024/02/27 02:14:00;;;;;;;3.70;3.50;;;14.90;59.90;;;;;;4972847;28;20895;-76
2024/02/27 02:16:28;;;;;;;4.00;3.67;;;14.90;60.20;;;;;;4973337;28;20484;-75
2024/02/27 02:18:58;;;;;;;3.33;3.07;;;14.90;60.20;;;;;;4976418;28;20478;-76
2024/02/27 02:21:27;;;;;;;4.23;3.93;;;14.90;60.20;;;;;;4977355;28;20454;-76
2024/02/27 02:23:56;;;;;;;3.53;3.33;;;14.90;60.30;;;;;;4977238;28;20466;-76
2024/02/27 02:26:24;;;;;;;3.57;3.30;;;14.90;60.40;;;;;;4977021;28;20453;-76
2024/02/27 02:28:52;;;;;;;3.90;3.50;;;15.00;60.30;;;;;;4985123;28;20734;-76
2024/02/27 02:31:20;;;;;;;3.40;3.10;;;14.90;60.30;;;;;;4989825;28;20446;-76
2024/02/27 02:33:48;;;;;;;3.67;3.37;;;14.90;60.20;;;;;;4993693;28;20458;-76
2024/02/27 02:36:16;;;;;;;3.90;3.60;;;15.00;60.60;;;;;;4990925;28;20450;-76
2024/02/27 02:38:45;;;;;;;3.90;3.60;;;15.00;60.70;;;;;;5000559;28;20467;-75
2024/02/27 02:41:13;;;;;;;4.27;3.87;;;14.90;60.50;;;;;;4995811;28;20880;-76
2024/02/27 02:43:41;;;;;;;3.20;3.00;;;15.00;60.60;;;;;;4996502;28;21115;-75
2024/02/27 02:46:09;;;;;;;3.87;3.50;;;15.00;60.60;;;;;;5015753;28;20444;-75
2024/02/27 02:48:38;;;;;;;3.63;3.40;;;15.00;60.70;;;;;;5015581;28;20436;-75
2024/02/27 02:51:07;;;;;;;3.47;3.27;;;15.00;60.70;;;;;;5015258;28;20472;-76
2024/02/27 02:53:35;;;;;;;3.73;3.40;;;15.00;60.50;;;;;;5015832;28;20483;-76
2024/02/27 02:56:05;;;;;;;3.40;3.20;;;15.00;60.80;;;;;;5015616;28;20551;-76
2024/02/27 02:58:32;;;;;;;3.47;3.17;;;15.00;61.00;;;;;;5015240;28;20432;-76
2024/02/27 03:01:02;;;;;;;3.77;3.47;;;15.00;60.90;;;;;;5015444;28;20566;-76
2024/02/27 03:03:30;;;;;;;3.70;3.40;;;15.00;60.90;;;;;;5015095;28;20483;-76
2024/02/27 03:05:58;;;;;;;3.83;3.43;;;15.00;61.10;;;;;;5015221;28;20491;-76
2024/02/27 03:08:27;;;;;;;3.40;3.20;;;15.00;61.00;;;;;;5015498;28;20527;-76
2024/02/27 03:10:54;;;;;;;3.07;2.87;;;15.00;61.00;;;;;;5015198;28;20456;-76
2024/02/27 03:13:24;;;;;;;2.90;2.70;;;15.00;61.00;;;;;;5015099;28;20488;-77
2024/02/27 03:15:52;;;;;;;3.03;2.83;;;15.00;61.10;;;;;;5015237;28;20449;-76
2024/02/27 03:18:20;;;;;;;3.80;3.50;;;15.00;61.00;;;;;;5015158;28;20507;-76
2024/02/27 03:20:48;;;;;;;3.57;3.33;;;15.00;61.00;;;;;;5015404;28;20483;-76
2024/02/27 03:23:16;;;;;;;3.80;3.50;;;15.00;61.20;;;;;;5014872;28;20555;-76
2024/02/27 03:25:44;;;;;;;3.27;3.07;;;15.00;61.20;;;;;;5014967;28;20445;-76
2024/02/27 03:28:12;;;;;;;3.23;3.03;;;15.10;61.30;;;;;;5015031;28;20518;-76
2024/02/27 03:30:42;;;;;;;3.10;2.90;;;15.10;61.10;;;;;;5013864;28;20459;-76
2024/02/27 03:33:10;;;;;;;3.10;3.00;;;15.10;61.20;;;;;;5014669;28;20825;-76
2024/02/27 03:35:39;;;;;;;3.83;3.53;;;15.00;61.10;;;;;;5014817;28;20447;-76
2024/02/27 03:38:08;;;;;;;3.67;3.37;;;15.00;61.30;;;;;;5014645;28;20479;-76
2024/02/27 03:40:36;;;;;;;3.63;3.03;;;15.00;61.40;;;;;;5014547;28;20480;-76
2024/02/27 03:43:04;;;;;;;3.40;3.20;;;15.10;61.40;;;;;;5014519;28;20555;-76
2024/02/27 03:45:32;;;;;;;3.53;3.23;;;15.00;61.60;;;;;;5014624;28;20540;-76
2024/02/27 03:48:02;;;;;;;3.27;3.07;;;15.00;61.30;;;;;;5014598;28;20472;-76
2024/02/27 03:50:30;;;;;;;3.47;3.27;;;15.00;61.30;;;;;;5014309;28;20449;-76
2024/02/27 03:52:58;;;;;;;3.40;3.20;;;15.10;61.50;;;;;;5014280;28;20563;-76
2024/02/27 03:55:26;;;;;;;3.57;3.27;;;15.10;61.50;;;;;;5014181;28;20495;-76
2024/02/27 03:57:54;;;;;;;3.50;3.20;;;15.10;61.50;;;;;;5014290;28;20857;-76
2024/02/27 04:00:22;;;;;;;2.97;2.80;;;15.10;61.60;;;;;;5012225;28;20468;-76
2024/02/27 04:02:50;;;;;;;3.00;2.90;;;15.10;61.50;;;;;;4986468;28;20489;-76
2024/02/27 04:05:19;;;;;;;3.23;3.03;;;15.10;61.70;;;;;;4994090;28;20524;-76
2024/02/27 04:07:47;;;;;;;3.00;2.80;;;15.10;61.60;;;;;;4994758;28;20460;-77
2024/02/27 04:10:15;;;;;;;3.40;3.10;;;15.10;61.60;;;;;;4994639;28;20503;-77
2024/02/27 04:12:43;;;;;;;3.40;3.10;;;15.10;61.70;;;;;;4994118;28;20583;-76
2024/02/27 04:15:11;;;;;;;2.80;2.70;;;15.10;61.70;;;;;;4998181;28;20445;-76
2024/02/27 04:17:39;;;;;;;3.10;2.90;;;15.10;61.60;;;;;;5006111;28;20434;-76
2024/02/27 04:20:08;;;;;;;3.07;2.87;;;15.10;61.60;;;;;;4993988;28;20488;-76
2024/02/27 04:22:37;;;;;;;3.47;3.17;;;15.10;61.70;;;;;;4994297;28;20453;-76
2024/02/27 04:25:06;;;;;;;3.30;3.10;;;15.10;61.70;;;;;;4994037;28;20519;-75
2024/02/27 04:27:34;;;;;;;3.30;3.10;;;15.10;61.70;;;;;;4994113;28;20449;-76
2024/02/27 04:30:04;;;;;;;3.57;3.27;;;15.10;61.70;;;;;;4994145;28;20449;-76
2024/02/27 04:32:33;;;;;;;3.07;2.87;;;15.10;61.80;;;;;;4994152;28;20469;-76
2024/02/27 04:35:00;;;;;;;3.67;3.37;;;15.10;61.80;;;;;;4994062;28;20445;-76
2024/02/27 04:37:29;;;;;;;3.20;3.00;;;15.10;61.80;;;;;;4993959;28;20495;-76
2024/02/27 04:39:58;;;;;;;3.20;3.03;;;15.10;61.80;;;;;;4993695;28;20552;-76
2024/02/27 04:42:26;;;;;;;2.83;2.73;;;15.10;61.90;;;;;;4993763;28;20535;-76
2024/02/27 04:44:53;;;;;;;3.00;2.80;;;15.10;61.80;;;;;;4993451;28;20453;-76
2024/02/27 04:47:21;;;;;;;3.40;3.10;;;15.10;61.90;;;;;;4993461;28;20477;-76
2024/02/27 04:49:49;;;;;;;3.77;3.47;;;15.10;61.90;;;;;;4993853;28;20434;-76
2024/02/27 04:52:17;;;;;;;2.90;2.70;;;15.10;61.90;;;;;;4993697;28;20456;-76
2024/02/27 04:54:46;;;;;;;3.00;2.80;;;15.10;62.00;;;;;;4993803;28;20480;-76
2024/02/27 04:57:16;;;;;;;3.10;2.90;;;15.10;61.90;;;;;;4993601;28;20449;-76
2024/02/27 04:59:43;;;;;;;2.80;2.70;;;15.10;61.90;;;;;;4993405;28;20838;-76
2024/02/27 05:02:11;;;;;;;3.80;3.50;;;15.20;62.10;;;;;;4993160;28;20468;-76
2024/02/27 05:04:39;;;;;;;3.43;3.13;;;15.10;62.00;;;;;;4993496;28;20449;-76
2024/02/27 05:07:07;;;;;;;3.80;3.50;;;15.10;61.90;;;;;;4993370;28;20967;-76
2024/02/27 05:09:36;;;;;;;3.13;2.93;;;15.10;62.00;;;;;;4993459;28;20460;-76
2024/02/27 05:12:04;;;;;;;3.60;3.10;;;15.10;62.00;;;;;;4993522;28;20437;-76
2024/02/27 05:14:34;;;;;;;3.13;2.93;;;15.10;61.90;;;;;;4993067;28;20555;-76
2024/02/27 05:17:02;;;;;;;3.10;2.90;;;15.20;62.10;;;;;;4993283;28;20457;-76
2024/02/27 05:19:30;;;;;;;3.70;3.40;;;15.10;62.00;;;;;;4993404;28;20488;-76
2024/02/27 05:21:59;;;;;;;3.60;3.30;;;15.10;62.10;;;;;;4993390;28;20536;-76
2024/02/27 05:24:27;;;;;;;3.40;3.20;;;15.20;62.10;;;;;;4993187;28;20528;-75
2024/02/27 05:26:55;;;;;;;3.47;3.20;;;15.10;62.10;;;;;;4993157;28;20468;-76
2024/02/27 05:29:24;;;;;;;4.33;3.93;;;15.10;62.10;;;;;;4993179;28;20461;-76
2024/02/27 05:31:53;;;;;;;3.93;3.63;;;15.10;61.80;;;;;;4993071;28;20501;-75
2024/02/27 05:34:22;;;;;;;4.20;3.80;;;15.10;62.00;;;;;;4993046;28;20465;-76
2024/02/27 05:36:50;;;;;;;5.70;4.80;;;15.10;62.10;;;;;;4992888;28;20967;-76
2024/02/27 05:39:18;;;;;;;4.23;3.87;;;15.10;61.90;;;;;;4992804;28;20480;-76
2024/02/27 05:41:46;;;;;;;4.80;4.20;;;15.20;62.20;;;;;;4992834;28;20477;-76
2024/02/27 05:44:14;;;;;;;4.43;4.03;;;15.20;62.00;;;;;;4992949;28;20453;-76
2024/02/27 05:46:42;;;;;;;4.13;3.77;;;15.10;62.20;;;;;;4992668;28;20453;-76
2024/02/27 05:49:11;;;;;;;4.27;3.97;;;15.10;61.90;;;;;;4992969;28;20445;-76
2024/02/27 05:51:41;;;;;;;4.60;3.97;;;15.20;62.10;;;;;;4992722;28;20465;-76
2024/02/27 05:54:09;;;;;;;5.73;4.40;;;15.20;62.20;;;;;;4992579;28;20500;-76
2024/02/27 05:56:38;;;;;;;4.67;4.27;;;15.10;61.90;;;;;;4992903;28;20453;-76
2024/02/27 05:59:05;;;;;;;4.10;3.70;;;15.10;62.20;;;;;;4992458;28;20480;-76
2024/02/27 06:01:34;;;;;;;4.17;3.77;;;15.10;62.00;;;;;;4990824;28;20477;-76
2024/02/27 06:04:03;;;;;;;4.53;4.13;;;15.10;62.20;;;;;;4992161;28;20474;-76
2024/02/27 06:06:32;;;;;;;4.97;4.30;;;15.20;62.20;;;;;;4992267;28;20524;-76
2024/02/27 06:09:00;;;;;;;4.50;4.10;;;15.10;62.00;;;;;;4990344;28;20442;-76
2024/02/27 06:11:28;;;;;;;4.17;3.83;;;15.10;62.00;;;;;;4992509;28;20522;-76
2024/02/27 06:13:56;;;;;;;4.60;4.20;;;15.10;62.20;;;;;;4992766;28;20476;-76
2024/02/27 06:16:24;;;;;;;4.63;4.20;;;15.10;62.20;;;;;;4992502;28;20477;-76
2024/02/27 06:18:53;;;;;;;5.27;4.03;;;15.20;62.20;;;;;;4999892;28;20437;-76
2024/02/27 06:24:08;;;;;;;4.77;4.27;;;15.10;62.00;;;;;;5012130;28;20967;-76
2024/02/27 06:26:37;;;;;;;4.80;4.30;;;15.10;62.20;;;;;;5012261;28;20487;-77
2024/02/27 06:29:04;;;;;;;5.00;4.20;;;15.10;62.20;;;;;;5012391;28;21005;-76
2024/02/27 06:31:32;;;;;;;4.53;4.13;;;15.10;62.20;;;;;;5012337;28;20519;-76
2024/02/27 06:34:03;;;;;;;4.73;4.33;;;15.10;62.10;;;;;;5011997;28;20498;-76
2024/02/27 06:36:31;;;;;;;4.47;4.13;;;15.10;62.10;;;;;;5011753;28;20491;-76
2024/02/27 06:39:00;;;;;;;5.00;4.50;;;15.10;62.20;;;;;;5011870;28;20436;-76
2024/02/27 06:41:29;;;;;;;5.30;4.80;;;15.10;62.10;;;;;;5011883;28;20492;-77
2024/02/27 06:43:57;;;;;;;4.43;4.00;;;15.10;62.10;;;;;;5011827;28;20547;-76
2024/02/27 06:46:25;;;;;;;4.57;4.17;;;15.20;62.20;;;;;;5012294;28;20472;-76
2024/02/27 06:48:54;;;;;;;4.83;4.33;;;15.10;62.00;;;;;;5012109;28;20539;-76
2024/02/27 06:51:38;;;;;;;4.30;3.87;;;15.10;62.20;;;;;;5011722;28;20448;-77
2024/02/27 06:54:06;;;;;;;4.53;4.17;;;15.10;62.10;;;;;;5011533;28;20472;-76
2024/02/27 06:56:35;;;;;;;4.73;4.20;;;15.10;62.10;;;;;;5011153;28;20454;-76
2024/02/27 06:59:03;;;;;;;4.23;3.80;;;15.10;62.10;;;;;;5011183;28;20483;-77
2024/02/27 07:01:31;;;;;;;4.57;4.13;;;15.10;62.00;;;;;;5010865;28;20558;-76
2024/02/27 07:03:59;;;;;;;4.13;3.73;;;15.20;62.20;;;;;;5011234;28;21079;-77
2024/02/27 07:06:27;;;;;;;4.30;3.90;;;15.10;62.10;;;;;;5014913;28;20448;-77
2024/02/27 07:08:58;;;;;;;5.00;4.20;;;15.10;61.90;;;;;;5014627;28;20452;-76
2024/02/27 07:11:28;;;;;;;4.23;3.83;;;15.10;61.80;;;;;;5014826;28;20471;-77
2024/02/27 07:13:57;;;;;;;5.90;4.07;;;15.10;61.90;;;;;;5014535;28;20497;-77
2024/02/27 07:16:25;;;;;;;4.30;3.90;;;15.20;62.10;;;;;;5014497;28;20528;-76
2024/02/27 07:18:53;;;;;;;4.30;4.00;;;15.20;62.00;;;;;;5014678;28;20539;-76
2024/02/27 07:21:21;;;;;;;4.50;3.80;;;15.10;61.90;;;;;;5014482;28;20571;-76
2024/02/27 07:23:49;;;;;;;3.87;3.57;;;15.10;62.10;;;;;;5014254;28;20468;-76
2024/02/27 07:26:19;;;;;;;4.40;4.00;;;15.10;61.90;;;;;;5014604;28;20455;-77
2024/02/27 07:28:47;;;;;;;4.47;4.03;;;15.20;62.10;;;;;;5014468;28;20440;-77
2024/02/27 07:31:18;;;;;;;4.67;4.20;;;15.20;62.10;;;;;;5014413;28;20468;-77
2024/02/27 07:33:46;;;;;;;3.50;3.30;;;15.20;62.00;;;;;;5014495;28;20474;-77
2024/02/27 07:36:15;;;;;;;4.00;3.70;;;15.20;62.10;;;;;;5014150;28;20440;-77
2024/02/27 07:38:43;;;;;;;5.87;4.40;;;15.20;61.90;;;;;;5014406;28;20445;-76
2024/02/27 07:41:11;;;;;;;3.97;3.67;;;15.20;62.10;;;;;;5014667;28;20507;-76
2024/02/27 07:43:39;;;;;;;3.93;3.63;;;15.20;62.10;;;;;;5014441;28;20460;-77
2024/02/27 07:46:07;;;;;;;4.50;4.10;;;15.20;62.00;;;;;;5014180;28;20475;-77
2024/02/27 07:48:36;;;;;;;4.47;4.07;;;15.20;61.90;;;;;;5014335;28;20479;-76
2024/02/27 07:51:04;;;;;;;5.10;3.70;;;15.20;61.80;;;;;;5014395;28;20447;-76
2024/02/27 07:53:33;;;;;;;4.00;3.70;;;15.20;61.90;;;;;;5000491;28;20465;-76
2024/02/27 07:56:01;;;;;;;3.63;3.33;;;15.20;61.80;;;;;;4994506;28;20503;-76
2024/02/27 07:58:28;;;;;;;4.70;4.10;;;15.20;62.00;;;;;;4994038;28;20441;-77
2024/02/27 08:00:56;;;;;;;4.07;3.70;;;15.20;61.90;;;;;;4994405;28;20433;-77
2024/02/27 08:03:24;;;;;;;3.87;3.57;;;15.30;62.10;;;;;;4992343;28;20469;-77
2024/02/27 08:05:54;;;;;;;4.20;3.80;;;15.20;62.00;;;;;;4982042;28;20444;-77
2024/02/27 08:08:22;;;;;;;4.03;3.63;;;15.30;62.10;;;;;;4987222;28;20513;-78
2024/02/27 08:10:50;;;;;;;3.70;3.40;;;15.20;62.20;;;;;;4986291;28;20454;-77
2024/02/27 08:13:19;;;;;;;4.13;3.73;;;15.30;62.30;;;;;;4982875;28;20456;-77
2024/02/27 08:15:50;;;;;;;3.63;3.43;;;15.30;62.20;;;;;;4983815;28;20427;-77
2024/02/27 08:18:19;;;;;;;3.97;3.57;;;15.30;62.10;;;;;;4991577;28;20446;-77
2024/02/27 08:20:47;;;;;;;3.10;2.90;;;15.30;62.20;;;;;;4983408;28;20430;-77
2024/02/27 08:23:16;;;;;;;3.53;3.23;;;15.30;62.10;;;;;;4990492;28;20565;-77
2024/02/27 08:25:44;;;;;;;3.90;3.60;;;15.30;62.10;;;;;;4987308;28;20469;-77
2024/02/27 08:28:12;;;;;;;3.60;3.30;;;15.30;62.00;;;;;;4985676;28;20528;-78
2024/02/27 08:30:40;;;;;;;3.00;2.80;;;15.30;62.10;;;;;;4982999;28;20429;-77
2024/02/27 08:33:07;;;;;;;4.07;3.20;;;15.30;62.10;;;;;;4991038;28;20465;-78
2024/02/27 08:35:35;;;;;;;3.57;3.27;;;15.30;62.10;;;;;;4986841;28;20457;-77
2024/02/27 08:38:04;;;;;;;3.40;3.20;;;15.30;62.20;;;;;;4984724;28;20868;-77
2024/02/27 08:40:33;;;;;;;3.83;3.43;;;15.30;62.10;;;;;;4985237;28;20462;-77
2024/02/27 08:43:01;;;;;;;3.90;3.60;;;15.30;62.30;;;;;;4985011;28;20505;-77
2024/02/27 08:45:29;;;;;;;3.40;3.20;;;15.30;62.00;;;;;;4984800;28;20461;-78
2024/02/27 08:47:58;;;;;;;3.27;3.00;;;15.40;62.30;;;;;;4985776;28;20449;-78
2024/02/27 08:50:26;;;;;;;4.40;4.00;;;15.40;62.40;;;;;;4984348;28;20963;-77
2024/02/27 08:52:54;;;;;;;4.40;4.00;;;15.40;62.30;;;;;;4984480;28;20466;-77
2024/02/27 08:55:24;;;;;;;3.60;3.30;;;15.40;62.30;;;;;;4984026;28;20542;-78
2024/02/27 08:57:54;;;;;;;3.80;3.50;;;15.40;62.40;;;;;;4983616;28;20445;-77
2024/02/27 09:00:23;;;;;;;4.30;3.90;;;15.40;62.10;;;;;;4982133;28;20654;-78
2024/02/27 09:02:51;;;;;;;4.13;3.73;;;15.50;62.30;;;;;;4989476;28;20485;-76
2024/02/27 09:05:18;;;;;;;3.93;3.63;;;15.50;62.30;;;;;;4985776;28;20529;-77
2024/02/27 09:07:46;;;;;;;3.30;3.10;;;15.50;62.40;;;;;;4988262;28;20478;-77
2024/02/27 09:10:14;;;;;;;3.80;3.50;;;15.50;62.30;;;;;;4991890;28;20472;-78
2024/02/27 09:12:42;;;;;;;3.67;3.37;;;15.50;62.40;;;;;;4990264;28;20540;-78
2024/02/27 09:15:11;;;;;;;3.70;3.50;;;15.50;62.50;;;;;;4988968;28;20457;-77
2024/02/27 09:17:39;;;;;;;5.00;3.53;;;15.50;62.30;;;;;;4992398;28;20503;-78
2024/02/27 09:20:09;;;;;;;4.30;3.90;;;15.50;62.20;;;;;;4991864;28;20453;-78
2024/02/27 09:22:38;;;;;;;4.00;3.60;;;15.60;62.40;;;;;;4993721;28;20508;-78
2024/02/27 09:25:07;;;;;;;3.60;3.30;;;15.50;62.40;;;;;;4988499;28;20526;-78
2024/02/27 09:27:35;;;;;;;4.67;4.07;;;15.60;62.40;;;;;;4991012;28;20454;-78
2024/02/27 09:30:04;;;;;;;4.00;3.60;;;15.60;62.40;;;;;;4991687;28;20449;-77
2024/02/27 09:32:34;;;;;;;4.33;3.80;;;15.60;62.40;;;;;;4988511;28;20536;-78
2024/02/27 09:35:02;;;;;;;4.23;3.87;;;15.60;62.40;;;;;;4988980;28;20452;-77
2024/02/27 09:37:31;;;;;;;4.73;4.33;;;15.60;62.60;;;;;;4990623;28;20449;-77
2024/02/27 09:39:59;;;;;;;3.90;3.47;;;15.70;62.60;;;;;;4993090;28;20449;-77
2024/02/27 09:42:28;;;;;;;3.60;3.30;;;15.60;62.40;;;;;;4992649;28;20469;-78
2024/02/27 09:45:05;;;;;;;4.37;3.90;;;15.60;62.60;;;;;;4992454;28;20475;-78
2024/02/27 09:47:37;;;;;;;3.90;3.50;;;15.60;62.60;;;;;;4992659;28;20440;-77
2024/02/27 09:50:07;;;;;;;4.07;3.73;;;15.70;62.60;;;;;;4992510;28;20453;-77
2024/02/27 09:52:35;;;;;;;3.90;3.60;;;15.70;62.60;;;;;;4992804;28;20466;-77
2024/02/27 09:55:03;;;;;;;3.30;3.07;;;15.70;62.70;;;;;;4993403;28;20939;-78
2024/02/27 09:57:31;;;;;;;3.50;3.20;;;15.70;62.60;;;;;;4993095;28;20536;-77
2024/02/27 09:59:59;;;;;;;3.37;3.07;;;15.70;62.60;;;;;;4991994;28;20511;-78
2024/02/27 10:02:28;;;;;;;3.70;3.40;;;15.70;62.70;;;;;;4992131;28;20481;-79
2024/02/27 10:04:57;;;;;;;3.90;3.60;;;15.80;62.80;;;;;;4992569;28;20456;-78
2024/02/27 10:07:25;;;;;;;3.67;3.37;;;15.80;62.70;;;;;;4993905;28;20493;-78
2024/02/27 10:09:54;;;;;;;3.30;3.00;;;15.80;62.80;;;;;;4993855;28;20517;-77
2024/02/27 10:12:22;;;;;;;3.70;3.40;;;15.80;62.90;;;;;;4993507;28;20522;-77
2024/02/27 10:14:50;;;;;;;3.83;3.37;;;15.80;62.90;;;;;;4992951;28;20497;-77
2024/02/27 10:17:18;;;;;;;3.97;3.57;;;15.90;62.90;;;;;;4992575;28;20476;-77
2024/02/27 10:19:47;;;;;;;3.90;3.60;;;15.90;62.90;;;;;;4993230;28;20540;-77
2024/02/27 10:22:17;;;;;;;3.40;3.20;;;15.90;63.60;;;;;;4993634;28;20446;-77
2024/02/27 10:24:45;;;;;;;3.50;3.30;;;15.90;62.80;;;;;;4993597;28;20869;-77
2024/02/27 10:27:13;;;;;;;3.10;2.90;;;15.90;62.90;;;;;;4993459;28;20940;-77
2024/02/27 10:29:41;;;;;;;3.73;3.33;;;16.00;62.90;;;;;;4993521;28;20455;-77
2024/02/27 10:32:12;;;;;;;3.60;3.30;;;15.90;62.80;;;;;;4992732;28;20452;-77
2024/02/27 10:34:41;;;;;;;4.10;3.10;;;16.00;62.90;;;;;;4992609;28;20473;-78
2024/02/27 10:37:10;;;;;;;3.67;3.33;;;16.00;62.90;;;;;;4989177;28;20446;-78
2024/02/27 10:39:40;;;;;;;4.37;3.63;;;16.00;62.90;;;;;;4989126;28;20555;-78
2024/02/27 10:42:08;;;;;;;5.80;3.73;;;16.00;62.90;;;;;;4987961;28;20468;-77
2024/02/27 10:44:36;;;;;;;3.70;3.30;;;16.00;62.80;;;;;;4983863;28;20469;-78
2024/02/27 10:47:07;;;;;;;4.00;3.70;;;16.00;63.00;;;;;;4985769;28;20438;-77
2024/02/27 10:49:35;;;;;;;4.37;3.97;;;16.00;62.90;;;;;;4989932;28;20480;-77
2024/02/27 10:55:01;;;;;;;6.93;4.30;;;16.00;63.10;;;;;;4996085;28;20444;-78
2024/02/27 10:57:31;;;;;;;6.07;5.20;;;16.00;63.10;;;;;;4998299;28;20445;-77
2024/02/27 10:59:59;;;;;;;5.23;4.73;;;16.10;63.00;;;;;;4998793;28;20441;-78
2024/02/27 11:02:27;;;;;;;7.13;5.80;;;16.10;63.10;;;;;;4996007;28;20448;-77
2024/02/27 11:04:55;;;;;;;7.27;5.77;;;16.10;63.10;;;;;;4996035;28;20461;-78
2024/02/27 11:07:23;;;;;;;9.47;7.10;;;16.10;63.30;;;;;;4996221;28;20936;-77
2024/02/27 11:09:50;;;;;;;8.50;6.60;;;16.10;63.20;;;;;;4996057;28;20560;-77
2024/02/27 11:12:21;;;;;;;11.73;7.87;;;16.10;63.10;;;;;;4995652;28;20442;-78
2024/02/27 11:14:50;;;;;;;12.50;8.03;;;16.10;63.00;;;;;;4995875;28;20438;-77
2024/02/27 11:17:20;;;;;;;10.30;8.03;;;16.10;63.00;;;;;;4996004;28;20496;-78
2024/02/27 11:19:49;;;;;;;12.00;8.20;;;16.20;63.30;;;;;;4995541;28;21047;-78
2024/02/27 11:22:18;;;;;;;11.87;8.13;;;16.20;63.30;;;;;;4995763;28;21032;-77
2024/02/27 11:24:47;;;;;;;11.33;8.27;;;16.20;63.10;;;;;;4995467;28;20500;-76
2024/02/27 11:27:16;;;;;;;18.80;8.50;;;16.20;63.30;;;;;;4995313;28;20437;-77
2024/02/27 11:29:46;;;;;;;12.83;8.87;;;16.20;63.10;;;;;;4994979;28;20449;-76
2024/02/27 11:32:13;;;;;;;13.83;9.10;;;16.20;63.10;;;;;;4994937;28;20433;-77
2024/02/27 11:34:41;;;;;;;11.40;8.90;;;16.20;63.80;;;;;;4995046;28;20536;-76
2024/02/27 11:37:10;;;;;;;11.73;8.97;;;16.20;63.20;;;;;;4995319;28;20437;-77
2024/02/27 11:39:38;;;;;;;10.57;8.87;;;16.30;63.10;;;;;;4994870;28;20536;-77
2024/02/27 11:42:07;;;;;;;11.80;8.87;;;16.30;63.20;;;;;;4995181;28;20449;-76
2024/02/27 11:44:54;;;;;;;12.20;8.90;;;16.30;63.20;;;;;;4994535;28;20483;-77
2024/02/27 11:47:38;;;;;;;11.80;8.53;;;16.30;63.20;;;;;;4994565;28;20484;-77
2024/02/27 11:50:08;;;;;;;14.37;9.10;;;16.30;63.30;;;;;;4994178;28;20520;-76
2024/02/27 11:52:35;;;;;;;30.00;16.50;;;16.30;63.30;;;;;;4995097;28;20481;-76
2024/02/27 11:55:07;;;;;;;32.70;17.60;;;14.90;55.40;;;;;;4992708;28;20462;-77
2024/02/27 11:57:35;;;;;;;30.90;15.30;;;13.10;56.60;;;;;;4986480;28;20444;-77
2024/02/27 12:00:08;;;;;;;31.20;15.63;;;12.70;57.70;;;;;;4989302;28;20441;-77
2024/02/27 12:02:37;;;;;;;54.10;25.87;;;13.10;63.30;;;;;;4982520;28;20474;-78
2024/02/27 12:05:06;;;;;;;34.07;17.30;;;13.40;59.30;;;;;;4991473;28;20912;-76
2024/02/27 12:07:34;;;;;;;36.97;18.60;;;13.10;56.00;;;;;;4983331;28;20441;-76
2024/02/27 12:10:08;;;;;;;36.53;18.17;;;13.70;60.50;;;;;;4986193;28;20442;-77
2024/02/27 12:12:37;;;;;;;32.97;17.13;;;14.30;60.00;;;;;;4988058;28;20509;-76
2024/02/27 12:15:06;;;;;;;29.90;16.40;;;14.70;59.40;;;;;;4987200;28;20444;-80
2024/02/27 12:17:36;;;;;;;30.23;16.83;;;15.10;58.80;;;;;;4985193;28;20516;-76
2024/02/27 12:20:06;;;;;;;34.80;18.50;;;15.30;58.20;;;;;;4990168;28;20456;-78
2024/02/27 12:22:35;;;;;;;31.33;17.23;;;15.50;58.00;;;;;;4983710;28;20540;-75
2024/02/27 12:25:03;;;;;;;30.60;16.70;;;15.70;57.90;;;;;;4991100;28;20543;-77
2024/02/27 12:27:32;;;;;;;27.37;15.60;;;15.80;57.80;;;;;;4994113;28;20452;-77
2024/02/27 12:30:00;;;;;;;27.60;15.60;;;15.90;57.70;;;;;;4994014;28;20532;-78
2024/02/27 12:32:29;;;;;;;30.57;16.30;;;15.90;57.70;;;;;;4994108;28;20459;-77
2024/02/27 12:34:57;;;;;;;26.10;15.40;;;16.00;57.70;;;;;;4993797;28;20426;-77
2024/02/27 12:37:26;;;;;;;24.47;15.27;;;16.10;57.70;;;;;;4994096;28;20449;-76
2024/02/27 12:39:54;;;;;;;28.57;15.53;;;16.20;57.90;;;;;;4993835;28;20528;-76
2024/02/27 12:42:22;;;;;;;24.57;14.60;;;16.20;57.80;;;;;;4994092;28;20441;-77
2024/02/27 12:44:49;;;;;;;26.47;15.00;;;16.20;57.80;;;;;;4994074;28;20536;-77
2024/02/27 12:47:17;;;;;;;28.00;14.60;;;16.30;57.90;;;;;;4994347;28;20464;-77
2024/02/27 12:49:45;;;;;;;24.73;13.77;;;16.30;58.00;;;;;;4993988;28;20495;-79
2024/02/27 12:52:17;;;;;;;24.33;14.17;;;16.30;58.00;;;;;;4993937;28;20445;-77
2024/02/27 12:54:46;;;;;;;23.40;14.10;;;16.30;58.00;;;;;;4994601;28;20852;-79
2024/02/27 12:57:14;;;;;;;27.63;14.53;;;16.30;58.00;;;;;;4994643;28;20437;-78